createdAt,value
2022-12-18T00:02:02.788Z,43.17
2022-12-18T00:04:30.727Z,45.83
2022-12-18T00:06:57.466Z,38.95
2022-12-18T00:09:25.209Z,43.08
2022-12-18T00:11:58.054Z,38.75
2022-12-18T00:14:24.770Z,43.15
2022-12-18T00:16:51.618Z,42.60
2022-12-18T00:19:19.629Z,41.70
2022-12-18T00:21:46.680Z,36.38
2022-12-18T00:24:16.224Z,37.40
2022-12-18T00:26:43.237Z,43.05
2022-12-18T00:29:14.693Z,39.00
2022-12-18T00:31:44.212Z,41.30
2022-12-18T00:34:15.427Z,40.33
2022-12-18T00:36:44.318Z,41.17
2022-12-18T00:39:12.040Z,38.88
2022-12-18T00:41:57.442Z,39.88
2022-12-18T00:44:24.133Z,35.08
2022-12-18T00:46:50.895Z,33.80
2022-12-18T00:49:18.927Z,37.67
2022-12-18T00:51:48.365Z,35.60
2022-12-18T00:54:15.387Z,37.50
2022-12-18T00:56:50.074Z,38.30
2022-12-18T00:59:17.571Z,34.72
2022-12-18T01:01:44.508Z,40.35
2022-12-18T01:04:12.632Z,39.58
2022-12-18T01:06:39.303Z,35.80
2022-12-18T01:09:08.224Z,75.40
2022-12-18T01:11:35.017Z,74.55
2022-12-18T01:14:01.893Z,37.53
2022-12-18T01:16:28.918Z,37.33
2022-12-18T01:18:56.155Z,33.95
2022-12-18T01:21:25.089Z,35.25
2022-12-18T01:23:56.439Z,38.17
2022-12-18T01:26:26.146Z,32.78
2022-12-18T01:28:54.779Z,33.88
2022-12-18T01:31:23.684Z,32.85
2022-12-18T01:33:51.550Z,32.30
2022-12-18T01:36:20.285Z,30.65
2022-12-18T01:38:48.363Z,33.42
2022-12-18T01:41:15.656Z,37.15
2022-12-18T01:43:46.285Z,35.95
2022-12-18T01:46:13.191Z,38.60
2022-12-18T01:48:40.780Z,35.65
2022-12-18T01:51:10.560Z,34.10
2022-12-18T01:53:38.396Z,33.67
2022-12-18T01:56:05.819Z,33.55
2022-12-18T01:58:41.570Z,34.10
2022-12-18T02:01:10.251Z,35.05
2022-12-18T02:03:37.657Z,32.53
2022-12-18T02:06:11.644Z,34.63
2022-12-18T02:11:16.289Z,37.38
2022-12-18T02:16:22.667Z,28.67
2022-12-18T02:18:55.124Z,30.65
2022-12-18T02:21:31.751Z,30.25
2022-12-18T02:24:17.586Z,28.23
2022-12-18T02:26:49.861Z,29.77
2022-12-18T02:29:21.474Z,27.65
2022-12-18T02:31:52.856Z,32.45
2022-12-18T02:34:22.364Z,31.85
2022-12-18T02:36:50.868Z,32.33
2022-12-18T02:39:18.736Z,28.92
2022-12-18T02:41:47.765Z,31.23
2022-12-18T02:44:15.424Z,32.15
2022-12-18T02:46:45.074Z,30.33
2022-12-18T02:49:23.774Z,25.65
2022-12-18T02:51:54.763Z,32.85
2022-12-18T02:54:32.977Z,28.27
2022-12-18T02:57:10.709Z,26.13
2022-12-18T02:59:43.087Z,29.77
2022-12-18T03:02:21.816Z,30.73
2022-12-18T03:04:57.472Z,25.05
2022-12-18T03:07:40.171Z,24.70
2022-12-18T03:10:09.867Z,27.92
2022-12-18T03:12:42.025Z,28.52
2022-12-18T03:15:17.439Z,26.90
2022-12-18T03:17:50.306Z,27.65
2022-12-18T03:20:22.624Z,25.05
2022-12-18T03:22:54.532Z,27.63
2022-12-18T03:25:22.513Z,26.52
2022-12-18T03:27:57.381Z,24.05
2022-12-18T03:30:24.422Z,25.70
2022-12-18T03:33:00.359Z,25.30
2022-12-18T03:35:34.806Z,23.63
2022-12-18T03:38:01.756Z,25.67
2022-12-18T03:40:36.315Z,22.75
2022-12-18T03:43:11.357Z,24.92
2022-12-18T03:45:42.930Z,28.95
2022-12-18T03:48:18.663Z,22.75
2022-12-18T03:50:50.526Z,23.45
2022-12-18T03:53:29.952Z,25.33
2022-12-18T03:55:58.593Z,20.48
2022-12-18T03:58:28.191Z,23.33
2022-12-18T04:00:58.055Z,25.85
2022-12-18T04:03:26.924Z,23.13
2022-12-18T04:05:56.455Z,26.27
2022-12-18T04:08:24.907Z,23.27
2022-12-18T04:10:51.588Z,28.77
2022-12-18T04:13:23.068Z,21.80
2022-12-18T04:15:51.253Z,22.98
2022-12-18T04:18:17.937Z,20.15
2022-12-18T04:20:44.537Z,20.23
2022-12-18T04:23:11.193Z,24.17
2022-12-18T04:25:37.953Z,20.48
2022-12-18T04:28:04.827Z,23.33
2022-12-18T04:30:31.512Z,23.13
2022-12-18T04:32:59.623Z,22.20
2022-12-18T04:35:26.338Z,25.13
2022-12-18T04:37:53.087Z,20.98
2022-12-18T04:40:19.810Z,19.60
2022-12-18T04:42:46.561Z,25.05
2022-12-18T04:45:13.311Z,20.92
2022-12-18T04:47:40.025Z,21.00
2022-12-18T04:50:08.839Z,21.67
2022-12-18T04:52:35.427Z,24.10
2022-12-18T04:55:02.102Z,22.67
2022-12-18T04:57:28.888Z,22.45
2022-12-18T04:59:55.619Z,21.90
2022-12-18T05:02:22.389Z,19.33
2022-12-18T05:04:49.118Z,28.83
2022-12-18T05:07:17.248Z,24.83
2022-12-18T05:09:43.926Z,20.27
2022-12-18T05:12:11.788Z,19.58
2022-12-18T05:14:38.458Z,23.52
2022-12-18T05:17:05.132Z,27.25
2022-12-18T05:19:31.696Z,25.70
2022-12-18T05:21:58.592Z,23.40
2022-12-18T05:24:26.641Z,22.85
2022-12-18T05:26:53.327Z,25.63
2022-12-18T05:29:19.990Z,23.77
2022-12-18T05:31:46.623Z,23.73
2022-12-18T05:34:13.538Z,18.73
2022-12-18T05:36:40.773Z,19.38
2022-12-18T05:39:08.024Z,22.60
2022-12-18T05:41:36.115Z,28.52
2022-12-18T05:44:02.950Z,23.88
2022-12-18T05:46:30.491Z,27.38
2022-12-18T05:49:00.743Z,25.48
2022-12-18T05:51:27.943Z,25.15
2022-12-18T05:53:54.652Z,22.40
2022-12-18T05:56:22.922Z,25.52
2022-12-18T05:58:54.968Z,20.88
2022-12-18T06:01:23.896Z,25.73
2022-12-18T06:03:50.657Z,29.42
2022-12-18T06:06:19.977Z,29.92
2022-12-18T06:08:47.342Z,27.85
2022-12-18T06:11:14.306Z,28.30
2022-12-18T06:13:41.234Z,26.52
2022-12-18T06:16:09.600Z,31.67
2022-12-18T06:18:39.498Z,28.67
2022-12-18T06:21:06.458Z,33.92
2022-12-18T06:23:39.225Z,34.13
2022-12-18T06:26:06.915Z,31.08
2022-12-18T06:28:33.484Z,32.38
2022-12-18T06:31:00.187Z,36.35
2022-12-18T06:33:29.211Z,33.63
2022-12-18T06:36:01.171Z,30.30
2022-12-18T06:38:28.188Z,32.35
2022-12-18T06:40:54.818Z,30.73
2022-12-18T06:43:21.480Z,30.38
2022-12-18T06:45:53.577Z,28.45
2022-12-18T06:48:20.902Z,31.10
2022-12-18T06:50:49.018Z,25.92
2022-12-18T06:53:15.764Z,30.92
2022-12-18T06:55:42.420Z,32.67
2022-12-18T06:58:09.344Z,27.63
2022-12-18T07:00:38.165Z,30.15
2022-12-18T07:03:04.944Z,29.10
2022-12-18T07:05:31.760Z,28.35
2022-12-18T07:08:00.015Z,27.48
2022-12-18T07:10:27.295Z,29.77
2022-12-18T07:12:53.973Z,32.35
2022-12-18T07:15:20.686Z,25.83
2022-12-18T07:17:47.686Z,31.00
2022-12-18T07:20:14.323Z,28.23
2022-12-18T07:22:41.025Z,28.38
2022-12-18T07:25:09.720Z,29.33
2022-12-18T07:27:36.392Z,26.17
2022-12-18T07:30:03.600Z,26.27
2022-12-18T07:32:31.516Z,28.88
2022-12-18T07:34:58.090Z,26.75
2022-12-18T07:37:24.709Z,22.38
2022-12-18T07:39:51.275Z,24.35
2022-12-18T07:42:31.480Z,25.65
2022-12-18T07:44:58.380Z,25.33
2022-12-18T07:47:25.961Z,27.05
2022-12-18T07:49:52.705Z,26.92
2022-12-18T07:52:24.302Z,29.10
2022-12-18T07:54:52.850Z,30.52
2022-12-18T07:57:49.022Z,25.38
2022-12-18T08:00:09.034Z,26.77
2022-12-18T08:02:35.729Z,28.42
2022-12-18T08:05:02.595Z,27.10
2022-12-18T08:07:29.225Z,27.45
2022-12-18T08:09:55.867Z,26.75
2022-12-18T08:12:24.073Z,24.05
2022-12-18T08:14:50.732Z,31.55
2022-12-18T08:17:17.405Z,26.95
2022-12-18T08:19:44.531Z,26.90
2022-12-18T08:22:11.121Z,28.35
2022-12-18T08:24:37.821Z,30.90
2022-12-18T08:29:52.770Z,28.25
2022-12-18T08:32:19.702Z,24.73
2022-12-18T08:34:46.402Z,25.42
2022-12-18T08:37:13.464Z,26.55
2022-12-18T08:39:40.076Z,24.15
2022-12-18T08:42:25.565Z,23.02
2022-12-18T08:44:53.591Z,25.63
2022-12-18T08:47:20.291Z,25.40
2022-12-18T08:49:47.021Z,22.92
2022-12-18T08:52:13.849Z,25.85
2022-12-18T08:54:40.477Z,22.48
2022-12-18T08:57:07.689Z,25.67
2022-12-18T08:59:34.531Z,24.02
2022-12-18T09:02:02.800Z,25.08
2022-12-18T09:04:29.601Z,23.17
2022-12-18T09:06:56.273Z,17.33
2022-12-18T09:09:22.987Z,23.73
2022-12-18T09:11:51.934Z,24.38
2022-12-18T09:14:18.777Z,24.23
2022-12-18T09:16:45.628Z,21.63
2022-12-18T09:19:13.803Z,25.38
2022-12-18T09:21:46.091Z,21.23
2022-12-18T09:24:15.597Z,22.40
2022-12-18T09:26:43.465Z,22.70
2022-12-18T09:29:14.501Z,22.58
2022-12-18T09:31:41.642Z,25.10
2022-12-18T09:34:08.637Z,27.05
2022-12-18T09:36:36.807Z,28.42
2022-12-18T09:39:08.126Z,24.73
2022-12-18T09:41:45.181Z,19.80
2022-12-18T09:44:18.336Z,22.58
2022-12-18T09:46:51.274Z,25.23
2022-12-18T09:49:22.967Z,25.42
2022-12-18T09:51:55.699Z,25.77
2022-12-18T09:54:26.471Z,25.15
2022-12-18T09:56:54.268Z,23.85
2022-12-18T09:59:25.748Z,26.35
2022-12-18T10:01:52.687Z,24.15
2022-12-18T10:04:19.795Z,27.05
2022-12-18T10:06:54.137Z,26.27
2022-12-18T10:09:28.221Z,26.17
2022-12-18T10:12:04.556Z,29.63
2022-12-18T10:14:42.017Z,27.35
2022-12-18T10:17:19.720Z,27.60
2022-12-18T10:19:51.769Z,27.92
2022-12-18T10:22:36.876Z,26.20
2022-12-18T10:25:18.024Z,27.70
2022-12-18T10:27:44.958Z,27.83
2022-12-18T10:30:15.864Z,29.85
2022-12-18T10:32:45.895Z,26.88
2022-12-18T10:35:20.039Z,26.83
2022-12-18T10:38:22.581Z,29.38
2022-12-18T10:40:52.209Z,29.40
2022-12-18T10:43:24.286Z,30.02
2022-12-18T10:46:06.557Z,31.88
2022-12-18T10:48:37.423Z,34.63
2022-12-18T10:51:13.333Z,33.92
2022-12-18T10:53:45.504Z,33.00
2022-12-18T10:56:13.220Z,32.78
2022-12-18T10:58:41.096Z,36.03
2022-12-18T11:01:11.827Z,33.92
2022-12-18T11:03:41.997Z,34.75
2022-12-18T11:06:12.020Z,38.00
2022-12-18T11:08:39.720Z,36.13
2022-12-18T11:11:21.161Z,35.83
2022-12-18T11:13:58.519Z,38.50
2022-12-18T11:16:28.630Z,41.28
2022-12-18T11:18:56.699Z,37.70
2022-12-18T11:21:23.689Z,43.08
2022-12-18T11:23:52.563Z,37.65
2022-12-18T11:26:22.597Z,39.58
2022-12-18T11:28:52.799Z,42.13
2022-12-18T11:31:27.477Z,40.25
2022-12-18T11:36:49.578Z,42.65
2022-12-18T11:39:20.477Z,49.28
2022-12-18T11:42:12.682Z,39.97
2022-12-18T11:44:46.774Z,42.90
2022-12-18T11:49:51.248Z,42.08
2022-12-18T11:52:20.940Z,44.60
2022-12-18T11:54:52.768Z,42.97
2022-12-18T11:57:35.904Z,43.38
2022-12-18T12:00:12.157Z,43.20
2022-12-18T12:03:07.971Z,45.78
2022-12-18T12:05:48.556Z,47.17
2022-12-18T12:08:24.028Z,43.83
2022-12-18T12:11:02.141Z,42.75
2022-12-18T12:13:44.246Z,44.45
2022-12-18T12:16:19.303Z,44.83
2022-12-18T12:18:59.763Z,43.35
2022-12-18T12:21:34.268Z,43.83
2022-12-18T12:24:09.041Z,46.60
2022-12-18T12:26:46.167Z,44.20
2022-12-18T12:29:32.089Z,42.50
2022-12-18T12:32:13.276Z,42.00
2022-12-18T12:34:52.665Z,44.08
2022-12-18T12:37:38.215Z,49.13
2022-12-18T12:40:26.811Z,47.08
2022-12-18T12:43:16.131Z,44.85
2022-12-18T12:45:50.228Z,45.92
2022-12-18T12:48:25.568Z,48.55
2022-12-18T12:50:54.483Z,41.28
2022-12-18T12:53:28.070Z,44.90
2022-12-18T12:55:55.775Z,46.63
2022-12-18T12:58:33.276Z,42.72
2022-12-18T13:01:18.476Z,51.03
2022-12-18T13:03:59.681Z,43.50
2022-12-18T13:09:26.138Z,44.45
2022-12-18T13:12:11.553Z,40.53
2022-12-18T13:14:41.062Z,45.35
2022-12-18T13:17:34.376Z,50.33
2022-12-18T13:20:12.169Z,46.30
2022-12-18T13:22:43.016Z,47.83
2022-12-18T13:25:30.263Z,53.60
2022-12-18T13:28:02.839Z,48.30
2022-12-18T13:30:50.863Z,51.38
2022-12-18T13:34:23.908Z,53.92
2022-12-18T13:36:34.515Z,52.10
2022-12-18T13:39:30.238Z,51.28
2022-12-18T13:42:55.544Z,50.58
2022-12-18T13:45:46.632Z,47.78
2022-12-18T13:48:19.516Z,53.13
2022-12-18T13:50:54.038Z,47.53
2022-12-18T13:53:24.548Z,55.30
2022-12-18T13:55:52.714Z,48.83
2022-12-18T13:58:20.126Z,53.53
2022-12-18T14:00:47.034Z,48.05
2022-12-18T14:03:22.452Z,47.15
2022-12-18T14:05:57.184Z,53.90
2022-12-18T14:08:35.913Z,50.70
2022-12-18T14:11:05.320Z,62.90
2022-12-18T14:13:35.535Z,63.05
2022-12-18T14:16:04.515Z,54.28
2022-12-18T14:18:40.233Z,54.88
2022-12-18T14:21:19.393Z,50.58
2022-12-18T14:23:46.397Z,53.10
2022-12-18T14:26:25.519Z,53.33
2022-12-18T14:28:52.563Z,49.63
2022-12-18T14:31:20.716Z,50.97
2022-12-18T14:33:47.611Z,46.40
2022-12-18T14:36:19.568Z,51.67
2022-12-18T14:38:50.850Z,49.53
2022-12-18T14:41:19.698Z,54.88
2022-12-18T14:43:49.082Z,58.70
2022-12-18T14:46:35.527Z,52.72
2022-12-18T14:49:05.516Z,56.35
2022-12-18T14:51:35.319Z,53.60
2022-12-18T14:54:04.686Z,59.92
2022-12-18T14:56:34.401Z,54.85
2022-12-18T14:59:03.129Z,56.17
2022-12-18T15:01:33.770Z,49.58
2022-12-18T15:04:02.636Z,54.83
2022-12-18T15:06:35.041Z,53.17
2022-12-18T15:09:04.440Z,54.67
2022-12-18T15:11:47.218Z,47.42
2022-12-18T15:14:35.991Z,48.35
2022-12-18T15:17:06.869Z,51.72
2022-12-18T15:19:38.459Z,48.25
2022-12-18T15:22:25.979Z,71.50
2022-12-18T15:24:53.445Z,47.95
2022-12-18T15:27:22.978Z,52.90
2022-12-18T15:30:02.175Z,49.72
2022-12-18T15:32:28.945Z,49.83
2022-12-18T15:35:04.309Z,52.95
2022-12-18T15:37:32.336Z,51.97
2022-12-18T15:39:59.058Z,54.33
2022-12-18T15:42:44.469Z,55.33
2022-12-18T15:45:13.875Z,78.82
2022-12-18T15:47:40.922Z,50.38
2022-12-18T15:50:08.817Z,48.42
2022-12-18T15:52:40.722Z,49.50
2022-12-18T15:55:31.216Z,49.20
2022-12-18T15:57:58.029Z,51.10
2022-12-18T16:00:24.789Z,48.75
2022-12-18T16:02:51.828Z,51.58
2022-12-18T16:05:21.213Z,52.97
2022-12-18T16:07:49.568Z,51.42
2022-12-18T16:10:16.679Z,54.35
2022-12-18T16:12:43.884Z,50.03
2022-12-18T16:15:15.316Z,50.80
2022-12-18T16:17:44.768Z,43.40
2022-12-18T16:20:15.983Z,48.47
2022-12-18T16:22:47.246Z,49.47
2022-12-18T16:25:20.180Z,49.38
2022-12-18T16:27:47.071Z,50.77
2022-12-18T16:30:16.348Z,50.67
2022-12-18T16:32:43.334Z,47.08
2022-12-18T16:35:12.304Z,53.38
2022-12-18T16:37:39.405Z,50.00
2022-12-18T16:40:10.934Z,61.13
2022-12-18T16:42:41.303Z,51.35
2022-12-18T16:45:10.850Z,42.75
2022-12-18T16:47:37.955Z,48.17
2022-12-18T16:50:05.950Z,51.38
2022-12-18T16:52:42.785Z,49.05
2022-12-18T16:55:10.041Z,49.97
2022-12-18T16:57:37.651Z,49.08
2022-12-18T17:00:06.289Z,51.92
2022-12-18T17:02:33.759Z,48.50
2022-12-18T17:05:01.209Z,44.00
2022-12-18T17:07:28.991Z,47.50
2022-12-18T17:10:06.892Z,42.38
2022-12-18T17:12:34.498Z,44.67
2022-12-18T17:15:01.174Z,47.95
2022-12-18T17:17:28.014Z,45.35
2022-12-18T17:19:57.487Z,49.85
2022-12-18T17:22:24.256Z,50.63
2022-12-18T17:24:51.227Z,45.17
2022-12-18T17:27:21.971Z,45.08
2022-12-18T17:29:49.220Z,47.22
2022-12-18T17:32:16.237Z,45.38
2022-12-18T17:34:42.984Z,45.40
2022-12-18T17:37:09.696Z,47.40
2022-12-18T17:39:36.619Z,49.10
2022-12-18T17:42:03.833Z,46.35
2022-12-18T17:44:34.442Z,48.85
2022-12-18T17:47:01.415Z,51.97
2022-12-18T17:49:28.580Z,50.08
2022-12-18T17:51:55.389Z,46.00
2022-12-18T17:54:22.271Z,42.72
2022-12-18T17:56:49.067Z,47.47
2022-12-18T17:59:16.460Z,40.45
2022-12-18T18:01:45.622Z,42.80
2022-12-18T18:04:13.226Z,45.00
2022-12-18T18:06:39.991Z,43.53
2022-12-18T18:09:06.742Z,43.53
2022-12-18T18:12:01.375Z,46.38
2022-12-18T18:14:28.433Z,47.40
2022-12-18T18:16:56.525Z,46.53
2022-12-18T18:19:25.874Z,48.78
2022-12-18T18:21:53.691Z,43.00
2022-12-18T18:24:23.705Z,46.05
2022-12-18T18:26:50.949Z,44.22
2022-12-18T18:29:21.620Z,40.90
2022-12-18T18:31:48.833Z,45.58
2022-12-18T18:34:18.274Z,43.80
2022-12-18T18:36:46.208Z,43.03
2022-12-18T18:39:13.663Z,44.67
2022-12-18T18:41:40.487Z,51.33
2022-12-18T18:44:10.085Z,43.78
2022-12-18T18:46:36.818Z,73.60
2022-12-18T18:49:04.038Z,58.10
2022-12-18T18:51:35.014Z,47.55
2022-12-18T18:54:02.526Z,47.63
2022-12-18T18:59:16.070Z,46.95
2022-12-18T19:01:43.208Z,41.88
2022-12-18T19:04:10.842Z,45.35
2022-12-18T19:06:39.704Z,44.63
2022-12-18T19:09:07.416Z,47.92
2022-12-18T19:11:52.831Z,44.90
2022-12-18T19:14:20.321Z,44.60
2022-12-18T19:16:46.951Z,42.05
2022-12-18T19:19:13.742Z,52.38
2022-12-18T19:21:41.893Z,44.13
2022-12-18T19:24:10.257Z,43.35
2022-12-18T19:26:37.521Z,42.63
2022-12-18T19:29:05.897Z,42.42
2022-12-18T19:31:36.013Z,44.38
2022-12-18T19:34:04.181Z,42.35
2022-12-18T19:36:32.299Z,42.20
2022-12-18T19:39:01.995Z,42.97
2022-12-18T19:41:32.830Z,42.65
2022-12-18T19:43:59.921Z,43.75
2022-12-18T19:46:28.282Z,45.30
2022-12-18T19:48:55.017Z,45.75
2022-12-18T19:51:24.939Z,44.10
2022-12-18T19:53:58.150Z,42.03
2022-12-18T19:58:55.347Z,43.22
2022-12-18T20:01:24.884Z,56.35
2022-12-18T20:03:54.509Z,44.67
2022-12-18T20:06:28.045Z,47.28
2022-12-18T20:09:00.699Z,45.50
2022-12-18T20:11:33.391Z,44.00
2022-12-18T20:14:04.378Z,42.90
2022-12-18T20:16:31.256Z,40.60
2022-12-18T20:19:01.350Z,46.45
2022-12-18T20:21:29.495Z,47.80
2022-12-18T20:23:56.342Z,44.85
2022-12-18T20:26:23.167Z,46.85
2022-12-18T20:28:51.785Z,44.35
2022-12-18T20:31:18.582Z,46.22
2022-12-18T20:33:47.699Z,53.40
2022-12-18T20:36:21.221Z,44.13
2022-12-18T20:38:50.178Z,44.95
2022-12-18T20:41:19.411Z,46.53
2022-12-18T20:43:46.478Z,48.40
2022-12-18T20:46:16.810Z,43.53
2022-12-18T20:48:45.129Z,50.58
2022-12-18T20:51:14.545Z,50.30
2022-12-18T20:53:42.081Z,57.65
2022-12-18T20:56:11.899Z,47.58
2022-12-18T20:58:38.844Z,53.53
2022-12-18T21:01:08.081Z,45.70
2022-12-18T21:03:36.900Z,42.67
2022-12-18T21:06:04.434Z,45.22
2022-12-18T21:08:31.842Z,46.10
2022-12-18T21:11:32.465Z,46.72
2022-12-18T21:13:59.977Z,43.97
2022-12-18T21:16:27.195Z,44.40
2022-12-18T21:18:55.321Z,43.20
2022-12-18T21:21:26.535Z,44.28
2022-12-18T21:23:53.735Z,40.42
2022-12-18T21:26:23.431Z,49.25
2022-12-18T21:28:54.210Z,40.00
2022-12-18T21:31:22.499Z,45.80
2022-12-18T21:33:49.268Z,49.60
2022-12-18T21:36:20.098Z,48.15
2022-12-18T21:38:46.847Z,43.58
2022-12-18T21:41:36.302Z,42.65
2022-12-18T21:44:05.706Z,45.53
2022-12-18T21:46:33.253Z,44.65
2022-12-18T21:49:00.522Z,49.22
2022-12-18T21:51:28.828Z,47.63
2022-12-18T21:53:55.584Z,39.22
2022-12-18T21:56:22.407Z,47.90
2022-12-18T21:58:55.397Z,44.95
2022-12-18T22:01:23.870Z,52.97
2022-12-18T22:03:50.625Z,47.83
2022-12-18T22:06:17.384Z,46.00
2022-12-18T22:08:45.498Z,44.33
2022-12-18T22:11:13.163Z,46.72
2022-12-18T22:13:39.872Z,47.63
2022-12-18T22:16:07.210Z,45.55
2022-12-18T22:18:33.907Z,45.00
2022-12-18T22:21:01.566Z,46.47
2022-12-18T22:23:28.340Z,44.20
2022-12-18T22:25:56.971Z,47.72
2022-12-18T22:28:42.351Z,46.90
2022-12-18T22:31:09.730Z,50.60
2022-12-18T22:33:36.373Z,51.22
2022-12-18T22:36:07.373Z,47.85
2022-12-18T22:38:34.398Z,52.88
2022-12-18T22:41:02.383Z,52.65
2022-12-18T22:43:29.187Z,46.00
2022-12-18T22:45:55.905Z,47.33
2022-12-18T22:48:22.781Z,52.05
2022-12-18T22:50:49.591Z,47.00
2022-12-18T22:53:17.751Z,53.67
2022-12-18T22:55:44.428Z,44.78
2022-12-18T22:58:12.353Z,47.45
2022-12-18T23:00:39.987Z,51.88
2022-12-18T23:03:07.143Z,48.97
2022-12-18T23:05:34.048Z,50.55
2022-12-18T23:08:00.797Z,47.25
2022-12-18T23:10:27.897Z,44.22
2022-12-18T23:12:54.518Z,46.90
2022-12-18T23:15:23.539Z,52.35
2022-12-18T23:17:56.123Z,45.90
2022-12-18T23:20:22.727Z,53.50
2022-12-18T23:22:49.368Z,54.25
2022-12-18T23:25:16.173Z,49.25
2022-12-18T23:27:42.862Z,46.45
2022-12-18T23:30:10.654Z,39.08
2022-12-18T23:32:38.893Z,44.38
2022-12-18T23:35:06.720Z,48.33
2022-12-18T23:37:58.296Z,48.13
2022-12-18T23:40:22.063Z,48.03
2022-12-18T23:42:48.718Z,53.85
2022-12-18T23:45:15.879Z,48.95
2022-12-18T23:47:51.007Z,52.15
2022-12-18T23:50:18.162Z,52.95
2022-12-18T23:52:44.799Z,51.33
2022-12-18T23:55:11.416Z,47.42
2022-12-18T23:57:38.062Z,48.97
